Time;durP1;ratioP1;P1;durP2;ratioP2;P2;SDS_P1;SDS_P2;PMS_P1;PMS_P2;Temp;Humidity;BMP_temperature;BMP_pressure;BME280_temperature;BME280_humidity;BME280_pressure;Samples;Min_cycle;Max_cycle;Signal;HPM_P1;HPM_P2
2022/03/23 00:01:48;;;;;;;45.20;37.15;;;2.10;99.90;;;;;;5040257;28;20124;-72
2022/03/23 00:04:15;;;;;;;47.17;40.55;;;2.00;99.90;;;;;;5040531;28;20056;-73
2022/03/23 00:06:44;;;;;;;49.08;40.17;;;1.90;99.90;;;;;;5041347;28;20144;-73
2022/03/23 00:09:12;;;;;;;51.72;38.63;;;1.90;99.90;;;;;;5041982;28;20111;-73
2022/03/23 00:11:39;;;;;;;49.50;39.08;;;1.80;99.90;;;;;;5039792;28;20048;-72
2022/03/23 00:14:06;;;;;;;49.22;39.00;;;1.70;99.90;;;;;;5040899;28;20049;-73
2022/03/23 00:16:39;;;;;;;46.97;39.03;;;1.80;99.90;;;;;;5041148;28;20072;-73
2022/03/23 00:19:07;;;;;;;47.08;38.65;;;2.10;99.90;;;;;;5041773;28;20055;-72
2022/03/23 00:21:35;;;;;;;47.95;37.53;;;2.10;99.90;;;;;;5023398;28;20049;-72
2022/03/23 00:24:02;;;;;;;43.60;36.53;;;2.20;99.90;;;;;;5041883;28;20067;-72
2022/03/23 00:26:29;;;;;;;44.17;37.03;;;2.30;99.90;;;;;;5040690;28;20049;-73
2022/03/23 00:28:56;;;;;;;44.95;37.65;;;2.10;99.90;;;;;;5038064;28;20045;-73
2022/03/23 00:31:23;;;;;;;47.65;39.00;;;2.00;99.90;;;;;;5040160;28;20127;-73
2022/03/23 00:33:51;;;;;;;45.95;38.65;;;2.10;99.90;;;;;;5040395;28;20087;-73
2022/03/23 00:36:18;;;;;;;43.33;37.28;;;2.10;99.90;;;;;;5040741;28;20145;-72
2022/03/23 00:38:45;;;;;;;48.63;38.15;;;1.90;99.90;;;;;;5023519;28;20068;-72
2022/03/23 00:41:13;;;;;;;47.13;37.67;;;1.80;99.90;;;;;;5039039;28;20056;-72
2022/03/23 00:43:39;;;;;;;45.90;39.90;;;1.70;99.90;;;;;;5041160;28;20045;-73
2022/03/23 00:46:06;;;;;;;46.58;36.72;;;1.80;99.90;;;;;;5039805;28;20168;-73
2022/03/23 00:48:33;;;;;;;50.33;38.90;;;1.80;99.90;;;;;;5047033;28;20055;-72
2022/03/23 00:51:00;;;;;;;44.47;38.53;;;1.70;99.90;;;;;;5042371;28;20070;-72
2022/03/23 00:53:27;;;;;;;46.72;37.47;;;1.60;99.90;;;;;;5042357;28;20128;-73
2022/03/23 00:55:54;;;;;;;45.78;38.55;;;1.80;99.90;;;;;;5040555;28;20049;-73
2022/03/23 00:58:22;;;;;;;50.70;38.22;;;1.60;99.90;;;;;;5038387;28;20052;-73
2022/03/23 01:00:49;;;;;;;51.53;38.00;;;1.60;99.90;;;;;;5038810;28;20136;-72
2022/03/23 01:03:17;;;;;;;46.28;37.53;;;1.60;99.90;;;;;;5023589;28;20554;-73
2022/03/23 01:05:44;;;;;;;43.92;37.45;;;1.50;99.90;;;;;;5038510;28;20049;-73
2022/03/23 01:08:11;;;;;;;48.40;38.30;;;1.40;99.90;;;;;;5039035;28;20103;-73
2022/03/23 01:10:37;;;;;;;47.90;39.13;;;1.60;99.90;;;;;;5039258;28;20281;-71
2022/03/23 01:13:04;;;;;;;49.88;38.63;;;1.60;99.90;;;;;;5040666;28;20621;-72
2022/03/23 01:15:32;;;;;;;46.75;36.92;;;1.50;99.90;;;;;;5039065;28;20048;-71
2022/03/23 01:17:58;;;;;;;52.20;38.75;;;1.60;99.90;;;;;;5040445;28;20044;-72
2022/03/23 01:20:25;;;;;;;48.63;38.28;;;1.40;99.90;;;;;;5036475;28;20052;-72
2022/03/23 01:22:53;;;;;;;46.17;38.80;;;1.30;99.90;;;;;;5026562;28;20057;-73
2022/03/23 01:25:20;;;;;;;51.00;40.13;;;1.20;99.90;;;;;;5019007;28;20068;-72
2022/03/23 01:27:47;;;;;;;49.22;38.00;;;1.20;99.90;;;;;;5031060;28;20549;-74
2022/03/23 01:30:15;;;;;;;44.38;38.15;;;1.10;99.90;;;;;;5034434;28;20044;-72
2022/03/23 01:32:44;;;;;;;52.63;38.50;;;1.10;99.90;;;;;;5038629;28;20044;-72
2022/03/23 01:35:12;;;;;;;48.78;38.35;;;1.00;99.90;;;;;;5040015;28;20284;-72
2022/03/23 01:37:38;;;;;;;50.40;38.60;;;1.00;99.90;;;;;;5041326;28;20056;-72
2022/03/23 01:40:08;;;;;;;49.40;38.50;;;1.10;99.90;;;;;;5039079;28;20053;-73
2022/03/23 01:42:36;;;;;;;46.63;38.42;;;1.00;99.90;;;;;;5056140;28;20064;-73
2022/03/23 01:45:04;;;;;;;48.97;37.75;;;1.00;99.90;;;;;;5038799;28;20071;-72
2022/03/23 01:47:31;;;;;;;51.83;39.58;;;1.00;99.90;;;;;;5051793;22;20036;-69
2022/03/23 01:49:58;;;;;;;51.22;38.60;;;0.90;99.90;;;;;;5067802;28;20098;-70
2022/03/23 01:52:29;;;;;;;46.80;38.72;;;0.90;99.90;;;;;;5043169;28;20105;-71
2022/03/23 01:54:56;;;;;;;52.53;39.63;;;0.90;99.90;;;;;;5043443;28;20114;-69
2022/03/23 01:57:23;;;;;;;49.72;39.33;;;0.90;99.90;;;;;;5059811;28;20036;-71
2022/03/23 01:59:50;;;;;;;45.90;38.13;;;0.90;99.90;;;;;;5040331;28;20064;-70
2022/03/23 02:02:19;;;;;;;47.22;39.15;;;0.90;99.90;;;;;;5059217;28;20045;-69
2022/03/23 02:05:05;;;;;;;46.58;39.40;;;0.90;99.90;;;;;;5039994;28;20048;-69
2022/03/23 02:07:34;;;;;;;51.25;40.00;;;0.90;99.90;;;;;;5042330;28;20044;-71
2022/03/23 02:10:02;;;;;;;48.10;39.47;;;0.80;99.90;;;;;;5059323;28;20037;-68
2022/03/23 02:12:44;;;;;;;49.75;39.10;;;1.00;99.90;;;;;;5040149;28;20041;-69
2022/03/23 02:15:16;;;;;;;49.35;38.50;;;1.20;99.90;;;;;;5043548;28;20129;-69
2022/03/23 02:17:44;;;;;;;51.25;38.13;;;1.30;99.90;;;;;;5031970;28;20143;-70
2022/03/23 02:20:12;;;;;;;43.03;37.63;;;1.40;99.90;;;;;;5021782;28;20056;-71
2022/03/23 02:22:39;;;;;;;45.05;37.35;;;1.30;99.90;;;;;;5041146;28;20144;-69
2022/03/23 02:25:07;;;;;;;45.83;37.60;;;1.30;99.90;;;;;;5042910;28;20537;-69
2022/03/23 02:27:38;;;;;;;47.55;39.08;;;1.40;99.90;;;;;;5060256;28;20051;-70
2022/03/23 02:30:08;;;;;;;46.70;38.63;;;1.20;99.90;;;;;;5057016;28;20748;-70
2022/03/23 02:32:35;;;;;;;48.58;38.60;;;1.10;99.90;;;;;;5059405;28;20049;-70
2022/03/23 02:35:03;;;;;;;43.13;37.85;;;0.90;99.90;;;;;;5061159;28;20044;-69
2022/03/23 02:37:30;;;;;;;45.53;38.88;;;0.80;99.90;;;;;;5060561;28;20090;-71
2022/03/23 02:39:56;;;;;;;44.65;38.00;;;0.80;99.90;;;;;;5025619;28;20505;-70
2022/03/23 02:42:23;;;;;;;44.58;38.15;;;0.70;99.90;;;;;;5027223;28;20049;-71
2022/03/23 02:44:50;;;;;;;46.53;38.63;;;0.70;99.90;;;;;;5060528;28;20056;-70
2022/03/23 02:47:17;;;;;;;49.35;38.22;;;0.70;99.90;;;;;;5041290;28;20048;-70
2022/03/23 02:49:44;;;;;;;45.80;38.25;;;0.60;99.90;;;;;;5048708;28;20057;-70
2022/03/23 02:52:11;;;;;;;51.28;39.90;;;0.60;99.90;;;;;;5040077;28;20053;-70
2022/03/23 03:03:44;;;;;;;51.85;39.08;;;0.50;99.90;;;;;;5059154;28;20048;-70
2022/03/23 03:06:10;;;;;;;44.67;38.65;;;0.70;99.90;;;;;;5041722;28;20048;-71
2022/03/23 03:08:47;;;;;;;51.70;38.70;;;0.80;99.90;;;;;;5042437;28;20036;-70
2022/03/23 03:11:16;;;;;;;48.45;37.53;;;0.70;99.90;;;;;;5041659;28;20120;-71
2022/03/23 03:13:44;;;;;;;44.15;38.63;;;0.70;99.90;;;;;;5060594;28;20044;-74
2022/03/23 03:16:11;;;;;;;52.05;39.45;;;0.80;99.90;;;;;;5059553;28;20048;-69
2022/03/23 03:18:38;;;;;;;50.20;38.75;;;0.60;99.90;;;;;;5060056;28;20045;-70
2022/03/23 03:21:06;;;;;;;51.78;38.83;;;0.50;99.90;;;;;;5059349;28;20044;-71
2022/03/23 03:23:35;;;;;;;48.17;38.42;;;0.50;99.90;;;;;;5036863;28;20058;-69
2022/03/23 03:26:05;;;;;;;49.22;38.25;;;0.50;99.90;;;;;;5045189;28;20064;-69
2022/03/23 03:28:33;;;;;;;50.90;40.10;;;0.60;99.90;;;;;;5063247;28;20466;-69
2022/03/23 03:31:05;;;;;;;50.80;39.53;;;0.40;99.90;;;;;;5059437;28;20603;-70
2022/03/23 03:33:32;;;;;;;46.92;38.22;;;0.40;99.90;;;;;;5046001;28;20040;-70
2022/03/23 03:35:59;;;;;;;46.53;38.80;;;0.50;99.90;;;;;;5045210;28;20528;-70
2022/03/23 03:38:27;;;;;;;46.35;38.45;;;0.80;99.90;;;;;;5063613;28;20049;-71
2022/03/23 03:40:55;;;;;;;47.17;38.95;;;1.00;99.90;;;;;;5063085;28;20147;-70
2022/03/23 03:43:24;;;;;;;45.70;38.05;;;0.90;99.90;;;;;;5062031;28;20056;-71
2022/03/23 03:45:52;;;;;;;48.22;38.85;;;0.70;99.90;;;;;;5044605;28;20041;-70
2022/03/23 03:48:19;;;;;;;51.72;39.22;;;0.60;99.90;;;;;;5068518;28;20040;-70
2022/03/23 03:50:46;;;;;;;48.85;38.15;;;0.50;99.90;;;;;;5082613;28;20070;-71
2022/03/23 03:53:13;;;;;;;48.60;38.65;;;0.70;99.90;;;;;;5050559;28;20048;-69
2022/03/23 03:55:40;;;;;;;48.58;38.08;;;0.80;99.90;;;;;;5063045;28;20041;-71
2022/03/23 03:58:08;;;;;;;47.55;37.58;;;0.70;99.90;;;;;;5044818;28;20480;-70
2022/03/23 04:00:36;;;;;;;50.40;38.10;;;0.60;99.90;;;;;;5040901;28;20037;-70
2022/03/23 04:03:03;;;;;;;45.13;37.35;;;0.50;99.90;;;;;;5045101;28;20135;-70
2022/03/23 04:05:31;;;;;;;52.00;38.38;;;0.50;99.90;;;;;;5063293;28;20033;-71
2022/03/23 04:07:58;;;;;;;51.03;37.50;;;0.40;99.90;;;;;;5045244;28;20040;-70
2022/03/23 04:10:26;;;;;;;47.45;36.33;;;0.50;99.90;;;;;;5062037;28;20451;-71
2022/03/23 04:12:53;;;;;;;47.03;38.90;;;0.40;99.90;;;;;;5061663;28;20101;-69
2022/03/23 04:15:21;;;;;;;51.20;38.67;;;0.40;99.90;;;;;;5013418;28;20047;-70
2022/03/23 04:17:48;;;;;;;46.42;38.50;;;0.30;99.90;;;;;;5062646;28;20049;-70
2022/03/23 04:20:15;;;;;;;57.25;38.90;;;0.30;99.90;;;;;;5061809;28;20535;-70
2022/03/23 04:22:42;;;;;;;50.47;40.47;;;0.20;99.90;;;;;;5063058;28;20125;-69
2022/03/23 04:25:11;;;;;;;46.80;37.63;;;0.10;99.90;;;;;;5061166;28;20087;-69
2022/03/23 04:27:52;;;;;;;53.25;38.13;;;0.20;99.90;;;;;;5061679;28;20527;-71
2022/03/23 04:30:22;;;;;;;47.88;39.88;;;0.40;99.90;;;;;;5058094;28;20036;-71
2022/03/23 04:32:50;;;;;;;54.20;39.10;;;0.40;99.90;;;;;;5043913;28;20044;-71
2022/03/23 04:35:19;;;;;;;51.05;38.47;;;0.40;99.90;;;;;;5045021;28;20052;-71
2022/03/23 04:37:46;;;;;;;45.63;37.75;;;0.30;99.90;;;;;;5045438;28;20225;-70
2022/03/23 04:40:16;;;;;;;50.45;37.92;;;0.20;99.90;;;;;;5062526;28;20098;-71
2022/03/23 04:42:44;;;;;;;48.33;39.17;;;0.10;99.90;;;;;;5028953;28;20106;-71
2022/03/23 04:45:13;;;;;;;51.92;37.80;;;0.10;99.90;;;;;;5062202;28;20696;-71
2022/03/23 04:47:41;;;;;;;52.53;38.22;;;0.10;99.90;;;;;;5044070;28;20062;-71
2022/03/23 04:50:09;;;;;;;59.45;37.55;;;0.40;99.90;;;;;;5077457;28;20618;-71
2022/03/23 04:52:39;;;;;;;47.70;38.42;;;0.60;99.90;;;;;;5045316;28;20117;-70
2022/03/23 04:55:07;;;;;;;46.25;36.45;;;0.80;99.90;;;;;;5044835;28;20102;-71
2022/03/23 04:57:34;;;;;;;47.13;37.90;;;0.60;99.90;;;;;;5042860;28;20048;-71
2022/03/23 05:00:00;;;;;;;47.95;39.00;;;0.60;99.90;;;;;;5040606;28;20040;-71
2022/03/23 05:02:27;;;;;;;49.85;39.97;;;0.50;99.90;;;;;;5043690;28;20063;-70
2022/03/23 05:04:54;;;;;;;46.97;37.78;;;0.40;99.90;;;;;;5062752;28;20056;-69
2022/03/23 05:07:21;;;;;;;48.72;38.35;;;0.30;99.90;;;;;;5043716;28;20290;-69
2022/03/23 05:09:48;;;;;;;49.75;39.92;;;0.30;99.90;;;;;;5061688;28;20045;-70
2022/03/23 05:12:14;;;;;;;47.10;38.15;;;0.30;99.90;;;;;;5059459;28;21275;-71
2022/03/23 05:14:41;;;;;;;47.38;37.20;;;0.20;99.90;;;;;;5060449;28;20048;-71
2022/03/23 05:17:08;;;;;;;54.53;40.70;;;0.10;99.90;;;;;;5060548;28;20082;-70
2022/03/23 05:19:35;;;;;;;50.50;39.15;;;0.00;99.90;;;;;;5025852;28;20060;-71
2022/03/23 05:22:03;;;;;;;48.83;39.33;;;0.00;99.90;;;;;;5060404;28;20151;-71
2022/03/23 05:24:30;;;;;;;53.65;40.30;;;0.10;99.90;;;;;;5042836;28;20718;-69
2022/03/23 05:26:57;;;;;;;47.35;39.95;;;0.10;99.90;;;;;;5042498;28;20063;-70
2022/03/23 05:29:24;;;;;;;50.45;39.80;;;0.30;99.90;;;;;;5057182;28;20106;-70
2022/03/23 05:31:51;;;;;;;52.05;39.85;;;0.20;99.90;;;;;;5043975;28;20130;-70
2022/03/23 05:34:18;;;;;;;54.90;41.85;;;0.10;99.90;;;;;;5058617;28;20151;-70
2022/03/23 05:36:45;;;;;;;51.30;41.13;;;0.10;99.90;;;;;;5058711;28;20699;-71
2022/03/23 05:39:12;;;;;;;54.10;42.45;;;0.30;99.90;;;;;;5059674;28;20872;-69
2022/03/23 05:41:39;;;;;;;55.38;43.78;;;0.50;99.90;;;;;;5058899;28;20459;-71
2022/03/23 05:44:07;;;;;;;56.85;43.45;;;0.60;99.90;;;;;;5046283;28;20074;-70
2022/03/23 05:46:34;;;;;;;48.17;41.92;;;0.70;99.90;;;;;;5058710;28;20660;-70
2022/03/23 05:49:01;;;;;;;53.10;42.75;;;0.50;99.90;;;;;;5067219;28;20036;-71
2022/03/23 05:51:27;;;;;;;51.47;43.40;;;0.40;99.90;;;;;;5040964;28;20045;-71
2022/03/23 05:53:54;;;;;;;48.22;40.30;;;0.40;99.90;;;;;;5041930;28;20044;-69
2022/03/23 05:56:21;;;;;;;46.90;41.30;;;0.30;99.90;;;;;;5006294;28;20056;-70
2022/03/23 05:58:48;;;;;;;52.20;43.75;;;0.30;99.90;;;;;;5059110;28;20414;-71
2022/03/23 06:01:15;;;;;;;52.70;44.00;;;0.40;99.90;;;;;;5055722;28;20049;-70
2022/03/23 06:03:42;;;;;;;52.67;44.53;;;0.40;99.90;;;;;;5059978;28;20118;-71
2022/03/23 06:06:09;;;;;;;52.95;44.88;;;0.40;99.90;;;;;;5058961;28;20052;-69
2022/03/23 06:08:36;;;;;;;52.67;44.40;;;0.40;99.90;;;;;;5049439;28;20135;-70
2022/03/23 06:11:03;;;;;;;51.15;42.13;;;0.50;99.90;;;;;;5056474;28;20051;-70
2022/03/23 06:13:30;;;;;;;50.30;43.08;;;0.50;99.90;;;;;;5040725;28;20033;-70
2022/03/23 06:15:56;;;;;;;52.55;43.67;;;0.60;99.90;;;;;;5039554;28;20108;-70
2022/03/23 06:18:23;;;;;;;55.40;45.55;;;0.60;99.90;;;;;;5039922;28;20054;-69
2022/03/23 06:20:51;;;;;;;51.72;45.33;;;0.70;99.90;;;;;;5058395;28;20094;-70
2022/03/23 06:23:18;;;;;;;52.28;43.75;;;0.70;99.90;;;;;;5041242;28;20084;-71
2022/03/23 06:25:45;;;;;;;46.40;41.40;;;0.70;99.90;;;;;;5059210;28;20641;-70
2022/03/23 06:28:11;;;;;;;50.10;42.75;;;0.70;99.90;;;;;;5041296;28;20052;-71
2022/03/23 06:30:38;;;;;;;48.45;42.50;;;0.80;99.90;;;;;;5054279;28;20045;-69
2022/03/23 06:33:05;;;;;;;49.72;43.38;;;0.90;99.90;;;;;;5058959;28;20106;-70
2022/03/23 06:35:32;;;;;;;53.20;44.55;;;1.00;99.90;;;;;;5057595;28;20122;-71
2022/03/23 06:37:58;;;;;;;53.17;42.85;;;1.10;99.90;;;;;;5059883;28;20048;-71
2022/03/23 06:40:25;;;;;;;51.60;43.50;;;1.30;99.90;;;;;;5044273;28;20456;-69
2022/03/23 06:42:52;;;;;;;52.83;43.15;;;1.40;99.90;;;;;;5054692;28;20135;-70
2022/03/23 06:45:19;;;;;;;49.97;43.85;;;1.40;99.90;;;;;;5042610;28;20051;-70
2022/03/23 06:47:46;;;;;;;51.53;43.42;;;1.50;99.90;;;;;;5059612;28;20059;-70
2022/03/23 06:50:13;;;;;;;50.53;44.42;;;1.50;99.90;;;;;;5048918;28;20124;-70
2022/03/23 06:52:40;;;;;;;52.13;44.40;;;1.60;99.90;;;;;;5041156;28;20045;-71
2022/03/23 06:55:07;;;;;;;52.13;42.10;;;1.70;99.90;;;;;;5042052;28;20045;-70
2022/03/23 06:57:35;;;;;;;53.92;44.97;;;1.90;99.90;;;;;;5059211;28;20517;-70
2022/03/23 07:00:07;;;;;;;49.85;42.22;;;2.00;99.90;;;;;;5059212;28;20052;-70
2022/03/23 07:02:33;;;;;;;51.05;42.67;;;2.10;99.90;;;;;;5044570;28;20707;-71
2022/03/23 07:05:08;;;;;;;48.17;43.08;;;2.50;99.90;;;;;;5044564;28;20063;-70
2022/03/23 07:07:38;;;;;;;46.95;41.92;;;2.80;99.90;;;;;;5062708;28;20063;-70
2022/03/23 07:10:06;;;;;;;53.17;45.38;;;3.20;99.90;;;;;;5049124;28;20401;-71
2022/03/23 07:12:33;;;;;;;50.55;44.75;;;3.30;99.90;;;;;;5062290;28;20064;-70
2022/03/23 07:14:59;;;;;;;51.58;44.33;;;3.50;99.90;;;;;;5064697;28;20051;-71
2022/03/23 07:17:26;;;;;;;46.47;41.63;;;4.00;99.90;;;;;;5063575;28;20357;-69
2022/03/23 07:19:53;;;;;;;44.80;40.10;;;4.30;99.90;;;;;;5063393;28;20139;-69
2022/03/23 07:22:20;;;;;;;45.33;40.55;;;4.60;99.90;;;;;;5063112;28;20808;-70
2022/03/23 07:24:47;;;;;;;44.10;39.65;;;5.00;99.90;;;;;;5045781;28;20056;-70
2022/03/23 07:27:14;;;;;;;46.92;42.03;;;5.20;99.90;;;;;;5063488;28;20049;-70
2022/03/23 07:29:47;;;;;;;47.45;41.90;;;5.30;99.90;;;;;;5043265;28;20047;-71
2022/03/23 07:32:14;;;;;;;53.22;45.05;;;5.50;99.90;;;;;;5051770;28;20044;-69
2022/03/23 07:34:41;;;;;;;56.38;45.35;;;5.90;99.90;;;;;;5067166;28;20036;-69
2022/03/23 07:37:08;;;;;;;58.53;43.65;;;6.20;99.90;;;;;;5048033;28;20518;-70
2022/03/23 07:39:35;;;;;;;47.45;40.65;;;6.40;99.90;;;;;;5047537;28;20168;-70
2022/03/23 07:42:02;;;;;;;52.53;44.25;;;6.70;99.90;;;;;;5063892;28;20052;-69
2022/03/23 07:44:32;;;;;;;48.47;43.25;;;7.20;99.90;;;;;;5064505;28;20378;-69
2022/03/23 07:47:00;;;;;;;47.15;42.38;;;7.80;99.90;;;;;;5063008;28;20049;-69
2022/03/23 07:49:27;;;;;;;48.35;43.50;;;8.40;99.90;;;;;;5078544;28;20069;-67
2022/03/23 07:51:54;;;;;;;46.17;41.33;;;9.10;99.90;;;;;;5083275;28;20055;-70
2022/03/23 07:54:21;;;;;;;46.92;42.22;;;9.90;99.90;;;;;;5084259;28;20040;-69
2022/03/23 07:56:48;;;;;;;46.80;41.97;;;10.70;99.90;;;;;;5063899;28;20699;-69
2022/03/23 07:59:15;;;;;;;46.70;42.10;;;11.40;99.90;;;;;;5060650;28;20561;-69
2022/03/23 08:01:41;;;;;;;47.33;42.63;;;12.10;99.90;;;;;;5050175;28;20068;-68
2022/03/23 08:04:09;;;;;;;46.22;41.97;;;12.60;99.90;;;;;;5045070;28;20049;-69
2022/03/23 08:06:36;;;;;;;45.45;41.33;;;13.10;99.90;;;;;;5062502;28;20052;-68
2022/03/23 08:09:04;;;;;;;47.15;42.25;;;13.60;99.90;;;;;;5063022;28;20471;-69
2022/03/23 08:11:30;;;;;;;44.75;40.50;;;14.10;99.90;;;;;;5044395;28;20466;-69
2022/03/23 08:13:57;;;;;;;51.92;47.35;;;14.30;99.90;;;;;;5048018;28;20075;-68
2022/03/23 08:16:24;;;;;;;49.10;44.60;;;14.60;99.90;;;;;;5062384;28;20049;-68
2022/03/23 08:18:54;;;;;;;50.30;45.17;;;14.70;99.60;;;;;;5061493;28;20061;-67
2022/03/23 08:21:23;;;;;;;51.85;47.08;;;14.90;98.30;;;;;;5044522;28;20102;-68
2022/03/23 08:23:50;;;;;;;50.72;46.35;;;15.00;97.00;;;;;;5045139;28;20076;-69
2022/03/23 08:26:17;;;;;;;50.65;45.70;;;15.30;96.40;;;;;;5061550;28;20678;-69
2022/03/23 08:28:45;;;;;;;49.28;45.33;;;15.50;94.20;;;;;;5062225;28;20511;-69
2022/03/23 08:31:13;;;;;;;50.08;45.80;;;15.50;92.70;;;;;;5058325;28;20355;-69
2022/03/23 08:33:40;;;;;;;48.25;44.20;;;15.70;92.40;;;;;;5062525;28;20396;-70
2022/03/23 08:36:08;;;;;;;50.00;46.13;;;15.90;91.70;;;;;;5061536;28;20056;-73
2022/03/23 08:38:35;;;;;;;50.03;45.78;;;16.00;91.70;;;;;;5062902;28;20566;-65
2022/03/23 08:41:04;;;;;;;52.72;48.47;;;16.10;90.80;;;;;;5061118;28;20138;-70
2022/03/23 08:43:30;;;;;;;50.92;46.72;;;16.20;90.70;;;;;;5063343;28;20124;-71
2022/03/23 08:45:59;;;;;;;52.97;48.60;;;16.30;90.30;;;;;;5060546;28;20550;-71
2022/03/23 08:48:26;;;;;;;51.03;47.08;;;16.50;88.10;;;;;;5068333;28;20465;-71
2022/03/23 08:50:54;;;;;;;52.08;47.60;;;16.40;86.80;;;;;;5081670;28;20115;-70
2022/03/23 08:53:21;;;;;;;53.30;48.90;;;16.60;86.00;;;;;;5082510;28;20089;-69
2022/03/23 08:55:48;;;;;;;51.42;47.00;;;16.70;85.30;;;;;;5081766;28;20073;-69
2022/03/23 08:58:14;;;;;;;52.33;47.72;;;16.60;85.30;;;;;;5065870;22;20045;-77
2022/03/23 09:00:50;;;;;;;52.88;48.38;;;16.60;83.50;;;;;;5017855;28;20041;-78
2022/03/23 09:03:17;;;;;;;51.50;47.58;;;16.50;82.40;;;;;;5022072;28;20052;-77
2022/03/23 09:05:44;;;;;;;51.50;47.20;;;16.70;83.10;;;;;;5022453;28;20572;-78
2022/03/23 09:08:11;;;;;;;54.78;50.28;;;16.80;83.10;;;;;;5038491;28;20095;-77
2022/03/23 09:10:37;;;;;;;53.05;48.83;;;17.00;83.10;;;;;;5004002;28;20132;-78
2022/03/23 09:13:04;;;;;;;54.03;49.63;;;17.20;80.10;;;;;;5049466;23;20061;-70
2022/03/23 09:15:31;;;;;;;51.03;47.13;;;17.40;81.80;;;;;;5049630;28;20033;-70
2022/03/23 09:17:59;;;;;;;52.28;48.22;;;17.30;78.30;;;;;;5048421;28;20083;-69
2022/03/23 09:20:30;;;;;;;53.53;49.25;;;17.30;78.30;;;;;;5029545;28;20195;-70
2022/03/23 09:22:58;;;;;;;51.58;47.67;;;17.40;79.50;;;;;;5033846;28;20130;-69
2022/03/23 09:25:25;;;;;;;53.33;48.75;;;17.30;76.20;;;;;;5033300;28;20059;-68
2022/03/23 09:27:53;;;;;;;53.05;48.38;;;17.30;76.40;;;;;;5032442;28;20318;-70
2022/03/23 09:30:20;;;;;;;51.40;47.60;;;17.20;76.30;;;;;;5018640;28;20048;-70
2022/03/23 09:32:48;;;;;;;52.15;48.00;;;17.20;72.10;;;;;;5032353;28;20114;-70
2022/03/23 09:35:16;;;;;;;53.38;49.25;;;17.10;73.50;;;;;;5033343;28;20586;-70
2022/03/23 09:37:50;;;;;;;51.35;47.55;;;17.20;72.40;;;;;;5034148;28;20049;-69
2022/03/23 09:40:30;;;;;;;51.25;47.13;;;17.30;74.10;;;;;;5030924;28;20048;-68
2022/03/23 09:43:08;;;;;;;49.47;45.67;;;17.20;71.60;;;;;;5033155;28;20059;-70
2022/03/23 09:48:09;;;;;;;52.83;48.80;;;17.10;71.90;;;;;;5032173;28;20073;-69
2022/03/23 09:50:38;;;;;;;51.95;47.55;;;17.10;72.70;;;;;;5032549;28;20131;-70
2022/03/23 09:53:06;;;;;;;51.90;47.75;;;17.30;72.00;;;;;;5033816;28;20375;-69
2022/03/23 09:55:33;;;;;;;51.47;47.63;;;17.10;71.40;;;;;;5031903;28;20248;-69
2022/03/23 09:58:02;;;;;;;52.47;48.15;;;17.10;71.90;;;;;;5031640;28;20055;-70
2022/03/23 10:00:35;;;;;;;52.00;47.70;;;17.40;71.60;;;;;;5030566;28;20140;-69
2022/03/23 10:03:11;;;;;;;54.70;50.75;;;17.50;71.90;;;;;;5032120;28;20524;-69
2022/03/23 10:05:59;;;;;;;52.42;48.53;;;17.60;70.10;;;;;;5032963;28;20044;-69
2022/03/23 10:08:57;;;;;;;53.95;49.95;;;17.90;72.40;;;;;;5032150;28;20424;-70
2022/03/23 10:12:08;;;;;;;52.53;48.47;;;17.90;71.10;;;;;;5032129;28;20650;-70
2022/03/23 10:15:32;;;;;;;56.95;52.45;;;17.50;69.00;;;;;;5023051;28;20053;-70
2022/03/23 10:18:20;;;;;;;56.60;52.35;;;17.40;69.60;;;;;;4987789;28;20080;-69
2022/03/23 10:20:47;;;;;;;56.40;51.92;;;17.80;70.60;;;;;;4985388;28;20603;-70
2022/03/23 10:23:20;;;;;;;56.75;52.40;;;18.00;69.30;;;;;;5006820;28;20072;-69
2022/03/23 10:25:47;;;;;;;54.30;50.10;;;18.20;70.70;;;;;;5029468;28;21015;-69
2022/03/23 10:28:15;;;;;;;58.05;53.53;;;18.10;71.60;;;;;;5028997;28;20048;-70
2022/03/23 10:30:44;;;;;;;58.70;54.13;;;18.00;71.00;;;;;;5027318;28;20049;-70
2022/03/23 10:33:22;;;;;;;58.15;53.42;;;18.40;71.70;;;;;;5031151;28;20049;-70
2022/03/23 10:35:51;;;;;;;57.58;53.13;;;18.60;73.00;;;;;;5035262;28;20304;-69
2022/03/23 10:38:20;;;;;;;60.90;55.72;;;18.90;73.00;;;;;;5034959;28;20691;-69
2022/03/23 10:40:50;;;;;;;58.72;54.22;;;19.10;68.70;;;;;;5029219;28;20557;-70
2022/03/23 10:43:21;;;;;;;58.53;53.90;;;19.10;70.40;;;;;;5032343;28;20044;-70
2022/03/23 10:45:47;;;;;;;57.40;52.78;;;19.20;70.00;;;;;;5035347;28;20059;-70
2022/03/23 10:48:17;;;;;;;57.88;52.97;;;19.30;69.80;;;;;;5031678;28;20115;-70
2022/03/23 10:50:58;;;;;;;58.15;53.55;;;18.70;69.00;;;;;;5031603;28;20578;-71
2022/03/23 10:53:35;;;;;;;60.15;55.25;;;18.70;69.50;;;;;;5031836;28;20049;-70
2022/03/23 10:56:02;;;;;;;49.50;45.00;;;18.60;68.00;;;;;;5035278;28;20045;-69
2022/03/23 10:58:29;;;;;;;57.78;53.03;;;18.70;70.80;;;;;;5032170;28;20037;-70
2022/03/23 11:00:59;;;;;;;55.22;50.90;;;18.80;70.20;;;;;;5033653;28;20037;-69
2022/03/23 11:03:48;;;;;;;56.67;52.03;;;19.00;68.70;;;;;;5036534;28;20055;-70
2022/03/23 11:06:25;;;;;;;56.03;51.50;;;19.40;69.30;;;;;;5036493;28;20132;-69
2022/03/23 11:08:52;;;;;;;55.85;51.50;;;19.30;66.80;;;;;;5035084;28;20048;-68
2022/03/23 11:16:46;;;;;;;56.30;51.70;;;19.20;66.90;;;;;;5036572;28;20148;-69
2022/03/23 11:19:15;;;;;;;58.63;53.80;;;19.20;66.00;;;;;;5037132;28;20049;-70
2022/03/23 11:22:04;;;;;;;56.03;51.63;;;19.10;66.20;;;;;;5037010;28;20049;-74
2022/03/23 11:24:38;;;;;;;59.58;54.67;;;19.10;66.00;;;;;;5036931;28;20079;-74
2022/03/23 11:27:18;;;;;;;58.28;53.13;;;19.20;65.90;;;;;;5034790;28;20512;-71
2022/03/23 11:29:47;;;;;;;57.22;52.60;;;19.00;65.50;;;;;;5047379;28;20140;-74
2022/03/23 11:32:18;;;;;;;57.72;53.20;;;19.30;66.20;;;;;;5034441;28;20130;-72
2022/03/23 11:34:48;;;;;;;58.08;53.42;;;19.50;66.30;;;;;;5050667;28;20736;-69
2022/03/23 11:37:19;;;;;;;55.88;51.30;;;19.70;64.60;;;;;;5035409;28;20041;-71
2022/03/23 11:39:47;;;;;;;57.53;53.10;;;19.90;65.90;;;;;;5033679;28;20452;-71
2022/03/23 11:42:15;;;;;;;59.15;54.40;;;19.90;66.20;;;;;;5033709;28;20049;-71
2022/03/23 11:44:42;;;;;;;60.30;54.65;;;19.70;64.70;;;;;;5035327;28;20132;-71
2022/03/23 11:47:31;;;;;;;60.42;54.97;;;19.10;65.00;;;;;;5050242;28;20057;-70
2022/03/23 11:50:25;;;;;;;60.53;55.83;;;18.00;68.70;;;;;;5032218;28;20048;-70
2022/03/23 11:53:02;;;;;;;62.55;56.67;;;18.00;69.50;;;;;;5035526;28;20049;-69
2022/03/23 11:55:37;;;;;;;61.67;55.75;;;18.60;69.40;;;;;;5033662;28;20487;-71
2022/03/23 11:58:27;;;;;;;61.00;56.08;;;19.10;67.30;;;;;;5034960;28;20049;-70
2022/03/23 12:01:05;;;;;;;58.97;53.83;;;19.40;68.10;;;;;;5030785;28;20410;-69
2022/03/23 12:03:41;;;;;;;59.08;53.97;;;19.50;66.60;;;;;;5033466;28;20374;-71
2022/03/23 12:06:11;;;;;;;59.13;54.00;;;19.60;67.50;;;;;;5035234;28;20051;-71
2022/03/23 12:08:51;;;;;;;60.20;55.15;;;19.50;64.70;;;;;;5034363;28;20053;-70
2022/03/23 12:11:31;;;;;;;58.58;53.90;;;19.50;64.40;;;;;;5031891;28;20143;-69
2022/03/23 12:13:59;;;;;;;59.20;54.47;;;19.40;65.40;;;;;;5034235;28;20241;-70
2022/03/23 12:16:51;;;;;;;58.70;54.08;;;19.30;63.90;;;;;;5033597;28;20614;-70
2022/03/23 12:19:59;;;;;;;59.45;54.65;;;19.40;64.50;;;;;;5033358;28;20049;-72
2022/03/23 12:22:45;;;;;;;61.90;56.60;;;19.30;67.20;;;;;;5034153;28;20056;-71
2022/03/23 12:25:52;;;;;;;62.20;56.80;;;19.20;64.40;;;;;;5035343;28;21010;-71
2022/03/23 12:28:43;;;;;;;61.90;56.15;;;18.60;67.00;;;;;;4998772;28;20041;-71
2022/03/23 12:31:15;;;;;;;62.80;57.97;;;18.50;67.00;;;;;;5044144;28;20068;-70
2022/03/23 12:34:05;;;;;;;64.38;58.83;;;18.70;65.70;;;;;;5031745;28;20080;-69
2022/03/23 12:39:47;;;;;;;58.75;53.83;;;19.50;65.50;;;;;;5033401;28;20485;-71
2022/03/23 12:42:15;;;;;;;60.83;55.53;;;19.70;64.50;;;;;;5031558;28;20297;-70
2022/03/23 12:44:47;;;;;;;59.33;54.35;;;19.80;65.10;;;;;;5033662;28;20518;-70
2022/03/23 12:47:25;;;;;;;60.83;56.10;;;20.00;65.90;;;;;;5032893;28;20046;-70
2022/03/23 12:58:24;;;;;;;58.90;54.22;;;19.50;66.10;;;;;;5032937;28;20244;-70
2022/03/23 13:00:54;;;;;;;60.17;55.22;;;19.70;66.70;;;;;;5029892;28;20791;-71
2022/03/23 13:03:22;;;;;;;62.15;56.80;;;19.70;65.80;;;;;;5031018;28;20630;-70
2022/03/23 13:05:58;;;;;;;60.83;55.88;;;19.70;64.80;;;;;;5030181;28;20041;-70
2022/03/23 13:08:32;;;;;;;62.08;57.13;;;19.60;65.20;;;;;;5031109;28;20375;-69
2022/03/23 13:11:01;;;;;;;59.33;54.73;;;19.90;64.00;;;;;;5012148;28;20055;-70
2022/03/23 13:13:32;;;;;;;62.42;57.30;;;19.90;64.10;;;;;;5031849;28;20059;-70
2022/03/23 13:16:00;;;;;;;60.88;55.92;;;19.70;64.20;;;;;;5035623;28;20102;-70